createdAt,value
2022-09-26T00:01:37.896Z,28.92
2022-09-26T00:04:31.787Z,28.50
2022-09-26T00:07:00.123Z,30.17
2022-09-26T00:09:28.487Z,31.92
2022-09-26T00:11:55.894Z,28.58
2022-09-26T00:14:28.772Z,29.42
2022-09-26T00:16:57.883Z,27.85
2022-09-26T00:19:25.351Z,28.88
2022-09-26T00:21:52.914Z,28.55
2022-09-26T00:24:20.337Z,30.77
2022-09-26T00:26:47.807Z,32.00
2022-09-26T00:29:15.346Z,34.80
2022-09-26T00:31:45.788Z,32.03
2022-09-26T00:34:15.644Z,30.83
2022-09-26T00:36:43.135Z,31.48
2022-09-26T00:39:13.394Z,32.05
2022-09-26T00:41:40.998Z,31.42
2022-09-26T00:44:33.162Z,29.33
2022-09-26T00:47:01.213Z,30.00
2022-09-26T00:49:38.269Z,29.42
2022-09-26T00:52:21.699Z,29.35
2022-09-26T00:54:52.038Z,33.58
2022-09-26T00:57:28.537Z,36.53
2022-09-26T01:00:01.552Z,35.40
2022-09-26T01:02:29.420Z,34.28
2022-09-26T01:04:58.577Z,32.33
2022-09-26T01:07:29.661Z,34.97
2022-09-26T01:09:57.991Z,36.17
2022-09-26T01:12:25.654Z,33.40
2022-09-26T01:14:54.476Z,31.13
2022-09-26T01:17:24.072Z,30.73
2022-09-26T01:20:03.356Z,30.33
2022-09-26T01:23:02.558Z,30.38
2022-09-26T01:26:07.257Z,29.80
2022-09-26T01:28:57.292Z,30.20
2022-09-26T01:32:12.364Z,31.67
2022-09-26T01:34:47.260Z,32.65
2022-09-26T01:37:17.814Z,30.98
2022-09-26T01:40:03.546Z,28.98
2022-09-26T01:42:52.071Z,28.35
2022-09-26T01:45:23.825Z,27.52
2022-09-26T01:48:09.824Z,27.60
2022-09-26T01:50:45.459Z,28.23
2022-09-26T01:53:19.768Z,28.15
2022-09-26T01:56:01.291Z,27.50
2022-09-26T01:58:38.099Z,28.45
2022-09-26T02:01:11.552Z,28.95
2022-09-26T02:03:50.657Z,28.17
2022-09-26T02:06:23.813Z,27.48
2022-09-26T02:08:59.225Z,27.23
2022-09-26T02:11:27.162Z,28.85
2022-09-26T02:14:04.182Z,28.55
2022-09-26T02:16:37.315Z,28.00
2022-09-26T02:19:29.933Z,26.15
2022-09-26T02:21:59.103Z,26.77
2022-09-26T02:24:27.370Z,28.55
2022-09-26T02:26:54.949Z,29.13
2022-09-26T02:29:23.079Z,28.38
2022-09-26T02:32:00.892Z,31.65
2022-09-26T02:34:29.533Z,34.28
2022-09-26T02:36:58.394Z,37.03
2022-09-26T02:39:29.843Z,36.25
2022-09-26T02:42:44.035Z,38.60
2022-09-26T02:45:32.558Z,38.47
2022-09-26T02:48:03.215Z,38.72
2022-09-26T02:50:39.106Z,39.13
2022-09-26T02:53:34.026Z,40.95
2022-09-26T02:56:16.437Z,40.83
2022-09-26T02:58:52.091Z,40.00
2022-09-26T03:01:30.065Z,40.38
2022-09-26T03:04:15.458Z,41.15
2022-09-26T03:06:46.588Z,42.05
2022-09-26T03:09:16.381Z,40.25
2022-09-26T03:11:44.299Z,40.80
2022-09-26T03:14:13.208Z,42.08
2022-09-26T03:16:44.475Z,40.78
2022-09-26T03:19:36.366Z,39.83
2022-09-26T03:22:04.670Z,39.22
2022-09-26T03:24:35.563Z,40.33
2022-09-26T03:27:05.164Z,39.63
2022-09-26T03:29:34.670Z,40.47
2022-09-26T03:32:02.637Z,38.80
2022-09-26T03:34:30.067Z,39.80
2022-09-26T03:36:57.612Z,41.33
2022-09-26T03:39:25.051Z,38.53
2022-09-26T03:42:06.799Z,37.45
2022-09-26T03:44:34.645Z,37.70
2022-09-26T03:47:05.258Z,39.78
2022-09-26T03:49:37.410Z,39.25
2022-09-26T03:52:07.131Z,39.00
2022-09-26T03:54:34.543Z,39.67
2022-09-26T03:57:02.579Z,38.97
2022-09-26T03:59:29.987Z,39.17
2022-09-26T04:01:57.554Z,41.33
2022-09-26T04:04:25.476Z,40.60
2022-09-26T04:06:53.893Z,40.30
2022-09-26T04:09:21.557Z,41.85
2022-09-26T04:11:53.173Z,42.58
2022-09-26T04:14:21.854Z,41.80
2022-09-26T04:16:54.557Z,44.20
2022-09-26T04:19:38.366Z,42.15
2022-09-26T04:22:08.255Z,42.33
2022-09-26T04:24:36.299Z,44.08
2022-09-26T04:27:04.870Z,44.22
2022-09-26T04:29:32.562Z,45.65
2022-09-26T04:32:12.602Z,46.92
2022-09-26T04:35:12.339Z,45.20
2022-09-26T04:37:40.241Z,45.42
2022-09-26T04:40:10.115Z,46.78
2022-09-26T04:42:42.641Z,45.95
2022-09-26T04:45:10.461Z,44.10
2022-09-26T04:47:37.835Z,44.90
2022-09-26T04:50:29.032Z,45.00
2022-09-26T04:53:06.470Z,44.08
2022-09-26T04:55:37.687Z,46.30
2022-09-26T04:58:05.164Z,47.15
2022-09-26T05:00:32.733Z,46.72
2022-09-26T05:03:05.092Z,47.50
2022-09-26T05:05:33.102Z,46.38
2022-09-26T05:08:00.592Z,46.50
2022-09-26T05:10:28.560Z,50.00
2022-09-26T05:13:02.275Z,48.05
2022-09-26T05:15:30.870Z,45.78
2022-09-26T05:18:01.889Z,42.75
2022-09-26T05:20:31.898Z,39.63
2022-09-26T05:23:05.695Z,43.13
2022-09-26T05:26:00.247Z,41.75
2022-09-26T05:28:27.866Z,39.35
2022-09-26T05:30:55.322Z,38.03
2022-09-26T05:33:22.729Z,36.30
2022-09-26T05:35:53.376Z,34.75
2022-09-26T05:38:21.040Z,38.65
2022-09-26T05:40:57.490Z,37.30
2022-09-26T05:43:28.484Z,35.83
2022-09-26T05:45:59.265Z,37.22
2022-09-26T05:48:32.240Z,37.63
2022-09-26T05:51:09.930Z,39.53
2022-09-26T05:53:40.288Z,38.75
2022-09-26T05:56:08.992Z,38.17
2022-09-26T05:59:04.983Z,37.28
2022-09-26T06:01:52.404Z,38.47
2022-09-26T06:04:39.970Z,36.40
2022-09-26T06:07:27.289Z,38.22
2022-09-26T06:09:54.706Z,35.80
2022-09-26T06:12:40.713Z,35.70
2022-09-26T06:15:09.556Z,35.78
2022-09-26T06:17:37.420Z,33.13
2022-09-26T06:20:06.022Z,33.55
2022-09-26T06:22:42.374Z,32.92
2022-09-26T06:25:10.854Z,30.73
2022-09-26T06:27:42.226Z,30.58
2022-09-26T06:30:13.312Z,30.90
2022-09-26T06:32:41.390Z,29.30
2022-09-26T06:35:40.966Z,28.55
2022-09-26T06:38:17.834Z,28.58
2022-09-26T06:40:45.842Z,28.67
2022-09-26T06:43:13.259Z,29.95
2022-09-26T06:45:59.381Z,31.17
2022-09-26T06:48:42.635Z,30.67
2022-09-26T06:51:21.230Z,30.17
2022-09-26T06:53:48.731Z,31.23
2022-09-26T06:56:20.592Z,32.22
2022-09-26T06:58:49.669Z,32.45
2022-09-26T07:01:18.846Z,34.35
2022-09-26T07:04:17.264Z,34.33
2022-09-26T07:06:52.220Z,35.15
2022-09-26T07:09:20.191Z,34.05
2022-09-26T07:12:14.148Z,35.05
2022-09-26T07:14:42.157Z,34.67
2022-09-26T07:17:21.358Z,35.00
2022-09-26T07:20:14.619Z,35.50
2022-09-26T07:23:06.768Z,35.38
2022-09-26T07:25:35.367Z,37.22
2022-09-26T07:28:03.410Z,38.28
2022-09-26T07:30:46.579Z,38.20
2022-09-26T07:33:27.902Z,39.13
2022-09-26T07:36:01.897Z,38.55
2022-09-26T07:38:32.107Z,37.25
2022-09-26T07:41:01.335Z,37.35
2022-09-26T07:44:04.464Z,34.83
2022-09-26T07:46:38.387Z,36.95
2022-09-26T07:49:24.229Z,35.75
2022-09-26T07:51:56.850Z,36.28
2022-09-26T07:54:30.927Z,35.83
2022-09-26T07:57:24.559Z,38.03
2022-09-26T08:00:12.827Z,38.85
2022-09-26T08:02:51.860Z,36.80
2022-09-26T08:05:24.627Z,35.78
2022-09-26T08:07:52.894Z,37.65
2022-09-26T08:10:39.077Z,34.17
2022-09-26T08:13:28.795Z,33.40
2022-09-26T08:16:28.484Z,32.17
2022-09-26T08:18:59.090Z,31.75
2022-09-26T08:21:27.207Z,32.17
2022-09-26T08:23:57.663Z,29.52
2022-09-26T08:26:43.880Z,28.98
2022-09-26T08:29:25.551Z,27.10
2022-09-26T08:31:55.023Z,22.13
2022-09-26T08:34:25.209Z,24.35
2022-09-26T08:37:12.063Z,23.42
2022-09-26T08:40:00.880Z,22.17
2022-09-26T08:42:56.492Z,19.25
2022-09-26T08:46:33.037Z,16.98
2022-09-26T08:49:45.029Z,20.90
2022-09-26T08:52:34.580Z,17.85
2022-09-26T08:55:12.155Z,20.52
2022-09-26T08:57:50.223Z,19.27
2022-09-26T09:00:20.823Z,20.25
2022-09-26T09:03:01.805Z,17.98
2022-09-26T09:05:39.008Z,18.75
2022-09-26T09:08:25.534Z,17.08
2022-09-26T09:11:11.070Z,16.48
2022-09-26T09:14:05.753Z,18.15
2022-09-26T09:20:03.626Z,16.35
2022-09-26T09:23:06.580Z,15.00
2022-09-26T09:29:19.613Z,13.73
2022-09-26T09:32:12.321Z,14.02
2022-09-26T09:34:57.607Z,12.82
2022-09-26T09:37:51.903Z,12.90
2022-09-26T09:40:46.834Z,14.25
2022-09-26T09:43:26.876Z,14.88
2022-09-26T09:45:59.117Z,13.80
2022-09-26T09:48:28.179Z,13.77
2022-09-26T09:51:05.521Z,12.88
2022-09-26T09:54:09.845Z,13.13
2022-09-26T09:57:08.285Z,12.52
2022-09-26T10:00:02.462Z,12.52
2022-09-26T10:03:02.308Z,12.10
2022-09-26T10:05:45.586Z,11.27
2022-09-26T10:08:28.284Z,11.65
2022-09-26T10:11:26.290Z,11.68
2022-09-26T10:14:03.144Z,11.32
2022-09-26T10:16:36.482Z,11.60
2022-09-26T10:19:10.358Z,12.25
2022-09-26T10:21:43.503Z,16.13
2022-09-26T10:24:34.388Z,11.80
2022-09-26T10:27:18.329Z,14.02
2022-09-26T10:29:47.314Z,12.68
2022-09-26T10:32:18.218Z,12.65
2022-09-26T10:35:07.854Z,12.85
2022-09-26T10:37:37.541Z,12.20
2022-09-26T10:40:45.959Z,13.80
2022-09-26T10:43:25.725Z,13.27
2022-09-26T10:46:13.661Z,13.95
2022-09-26T10:49:02.697Z,14.38
2022-09-26T10:52:01.525Z,13.30
2022-09-26T10:54:44.081Z,12.65
2022-09-26T10:57:20.174Z,12.65
2022-09-26T10:59:49.045Z,12.55
2022-09-26T11:02:21.944Z,12.35
2022-09-26T11:05:14.848Z,13.05
2022-09-26T11:08:15.072Z,12.70
2022-09-26T11:11:04.241Z,10.90
2022-09-26T11:13:50.252Z,11.30
2022-09-26T11:16:20.372Z,11.68
2022-09-26T11:19:12.689Z,11.75
2022-09-26T11:21:46.637Z,12.02
2022-09-26T11:24:46.669Z,10.80
2022-09-26T11:27:43.901Z,11.27
2022-09-26T11:30:20.660Z,10.68
2022-09-26T11:33:05.501Z,10.30
2022-09-26T11:36:27.119Z,11.57
2022-09-26T11:39:12.058Z,12.10
2022-09-26T11:42:02.535Z,11.20
2022-09-26T11:44:44.923Z,10.10
2022-09-26T11:47:52.806Z,10.43
2022-09-26T11:50:50.476Z,10.90
2022-09-26T11:53:40.469Z,12.07
2022-09-26T11:56:32.030Z,11.57
2022-09-26T11:59:08.888Z,11.95
2022-09-26T12:02:15.674Z,13.38
2022-09-26T12:05:11.376Z,12.18
2022-09-26T12:07:48.534Z,13.15
2022-09-26T12:10:28.119Z,12.38
2022-09-26T12:13:22.403Z,12.45
2022-09-26T12:16:14.543Z,12.98
2022-09-26T12:18:46.061Z,12.00
2022-09-26T12:21:26.784Z,12.45
2022-09-26T12:24:07.424Z,12.55
2022-09-26T12:27:00.059Z,12.60
2022-09-26T12:32:14.635Z,11.15
2022-09-26T12:35:01.366Z,12.10
2022-09-26T12:38:05.509Z,12.63
2022-09-26T12:41:25.117Z,11.07
2022-09-26T12:44:11.186Z,12.25
2022-09-26T12:47:02.092Z,13.32
2022-09-26T12:49:59.619Z,12.88
2022-09-26T12:52:55.029Z,12.18
2022-09-26T12:55:43.860Z,12.77
2022-09-26T12:58:33.472Z,13.07
2022-09-26T13:01:12.203Z,13.43
2022-09-26T13:03:54.649Z,13.65
2022-09-26T13:09:06.663Z,13.55
2022-09-26T13:11:59.088Z,13.13
2022-09-26T13:14:39.503Z,13.02
2022-09-26T13:17:20.450Z,12.82
2022-09-26T13:20:14.560Z,12.82
2022-09-26T13:23:27.308Z,12.63
2022-09-26T13:26:01.681Z,11.98
2022-09-26T13:29:12.959Z,12.00
2022-09-26T13:31:40.270Z,12.15
2022-09-26T13:34:26.251Z,12.20
2022-09-26T13:36:55.447Z,13.13
2022-09-26T13:39:52.746Z,14.07
2022-09-26T13:42:47.789Z,14.73
2022-09-26T13:45:34.274Z,13.60
2022-09-26T13:48:07.608Z,12.95
2022-09-26T13:50:55.928Z,12.18
2022-09-26T13:53:34.656Z,11.60
2022-09-26T13:56:35.999Z,11.73
2022-09-26T13:59:12.218Z,12.07
2022-09-26T14:01:58.831Z,12.70
2022-09-26T14:04:38.281Z,11.60
2022-09-26T14:07:34.379Z,10.52
2022-09-26T14:10:02.029Z,9.68
2022-09-26T14:13:09.329Z,8.65
2022-09-26T14:15:48.845Z,8.35
2022-09-26T14:18:52.229Z,5.90
2022-09-26T14:21:45.015Z,4.30
2022-09-26T14:24:26.546Z,4.50
2022-09-26T14:27:12.300Z,5.53
2022-09-26T14:29:39.621Z,4.30
2022-09-26T14:32:12.664Z,4.07
2022-09-26T14:34:44.151Z,4.38
2022-09-26T14:37:25.456Z,3.97
2022-09-26T14:40:09.904Z,3.22
2022-09-26T14:42:51.612Z,3.63
2022-09-26T14:45:27.010Z,3.75
2022-09-26T14:48:09.577Z,3.67
2022-09-26T14:51:04.803Z,4.30
2022-09-26T14:53:47.447Z,4.68
2022-09-26T14:56:37.295Z,4.68
2022-09-26T14:59:16.949Z,3.53
2022-09-26T15:01:45.287Z,4.82
2022-09-26T15:04:22.157Z,4.47
2022-09-26T15:07:00.913Z,4.97
2022-09-26T15:09:40.057Z,5.65
2022-09-26T15:12:39.918Z,5.60
2022-09-26T15:15:16.998Z,5.20
2022-09-26T15:17:54.151Z,4.47
2022-09-26T15:20:25.208Z,5.20
2022-09-26T15:22:57.825Z,5.72
2022-09-26T15:25:33.300Z,10.90
2022-09-26T15:28:02.581Z,6.47
2022-09-26T15:30:37.470Z,5.90
2022-09-26T15:33:10.379Z,6.63
2022-09-26T15:35:41.156Z,6.45
2022-09-26T15:38:12.970Z,13.48
2022-09-26T15:40:41.447Z,21.05
2022-09-26T15:43:10.456Z,6.57
2022-09-26T15:45:50.403Z,5.43
2022-09-26T15:48:32.685Z,5.00
2022-09-26T15:51:14.781Z,4.90
2022-09-26T15:54:02.693Z,5.20
2022-09-26T15:56:42.982Z,5.53
2022-09-26T15:59:32.424Z,5.60
2022-09-26T16:02:18.742Z,5.45
2022-09-26T16:04:52.079Z,5.93
2022-09-26T16:07:26.322Z,5.28
2022-09-26T16:09:58.028Z,5.45
2022-09-26T16:12:31.734Z,5.25
2022-09-26T16:15:08.115Z,5.50
2022-09-26T16:17:51.346Z,4.75
2022-09-26T16:20:20.940Z,5.47
2022-09-26T16:22:53.785Z,5.20
2022-09-26T16:25:25.426Z,5.72
2022-09-26T16:27:59.731Z,4.97
2022-09-26T16:30:35.343Z,5.45
2022-09-26T16:33:05.114Z,4.38
2022-09-26T16:35:38.198Z,4.93
2022-09-26T16:38:24.735Z,4.20
2022-09-26T16:40:55.201Z,4.38
2022-09-26T16:43:32.950Z,4.40
2022-09-26T16:46:04.233Z,4.35
2022-09-26T16:48:38.755Z,4.32
2022-09-26T16:51:22.843Z,4.53
2022-09-26T16:54:12.534Z,4.47
2022-09-26T16:56:43.221Z,4.55
2022-09-26T16:59:24.433Z,4.28
2022-09-26T17:01:55.460Z,5.00
2022-09-26T17:04:36.872Z,4.85
2022-09-26T17:07:15.679Z,5.70
2022-09-26T17:09:44.415Z,6.18
2022-09-26T17:12:20.820Z,6.95
2022-09-26T17:14:55.174Z,6.05
2022-09-26T17:17:25.834Z,7.38
2022-09-26T17:20:01.730Z,7.47
2022-09-26T17:22:30.893Z,7.35
2022-09-26T17:25:00.841Z,6.97
2022-09-26T17:27:35.631Z,6.97
2022-09-26T17:30:08.664Z,8.35
2022-09-26T17:32:39.393Z,8.25
2022-09-26T17:35:23.254Z,8.60
2022-09-26T17:37:52.056Z,8.20
2022-09-26T17:40:25.006Z,9.10
2022-09-26T17:42:59.308Z,9.80
2022-09-26T17:45:30.848Z,10.35
2022-09-26T17:48:03.329Z,9.60
2022-09-26T17:50:32.414Z,9.60
2022-09-26T17:53:02.769Z,10.32
2022-09-26T17:55:31.096Z,9.68
2022-09-26T17:57:59.765Z,8.88
2022-09-26T18:00:32.685Z,10.07
2022-09-26T18:03:04.900Z,9.68
2022-09-26T18:05:37.190Z,9.93
2022-09-26T18:08:27.643Z,10.07
2022-09-26T18:11:01.897Z,10.30
2022-09-26T18:13:33.858Z,11.13
2022-09-26T18:16:02.281Z,10.65
2022-09-26T18:18:32.318Z,10.52
2022-09-26T18:21:05.155Z,11.88
2022-09-26T18:23:59.246Z,10.95
2022-09-26T18:26:32.682Z,11.23
2022-09-26T18:29:07.591Z,10.80
2022-09-26T18:31:42.793Z,11.45
2022-09-26T18:34:20.406Z,11.15
2022-09-26T18:36:53.680Z,10.85
2022-09-26T18:39:23.556Z,10.63
2022-09-26T18:42:01.417Z,10.80
2022-09-26T18:44:36.692Z,11.18
2022-09-26T18:47:13.262Z,10.82
2022-09-26T18:49:41.912Z,12.45
2022-09-26T18:52:16.495Z,11.32
2022-09-26T18:54:46.059Z,10.90
2022-09-26T18:57:32.784Z,11.95
2022-09-26T19:00:00.658Z,12.50
2022-09-26T19:02:34.709Z,14.07
2022-09-26T19:05:05.387Z,14.05
2022-09-26T19:07:34.095Z,13.40
2022-09-26T19:10:02.686Z,13.13
2022-09-26T19:12:31.566Z,14.40
2022-09-26T19:14:58.887Z,12.75
2022-09-26T19:17:29.407Z,8.55
2022-09-26T19:19:59.465Z,8.30
2022-09-26T19:22:28.453Z,7.80
2022-09-26T19:24:59.677Z,8.25
2022-09-26T19:27:34.004Z,7.43
2022-09-26T19:30:12.593Z,8.32
2022-09-26T19:32:45.223Z,7.90
2022-09-26T19:35:31.890Z,7.53
2022-09-26T19:38:02.792Z,7.45
2022-09-26T19:40:31.736Z,6.90
2022-09-26T19:43:06.418Z,7.32
2022-09-26T19:45:37.388Z,7.00
2022-09-26T19:48:08.376Z,6.63
2022-09-26T19:50:41.852Z,7.93
2022-09-26T19:53:17.277Z,7.18
2022-09-26T19:55:52.221Z,7.88
2022-09-26T19:58:24.935Z,8.00
2022-09-26T20:00:57.907Z,8.55
2022-09-26T20:03:34.848Z,8.32
2022-09-26T20:06:02.837Z,7.88
2022-09-26T20:08:34.105Z,7.85
2022-09-26T20:11:03.145Z,7.80
2022-09-26T20:13:50.437Z,7.28
2022-09-26T20:16:20.780Z,7.05
2022-09-26T20:18:51.038Z,7.55
2022-09-26T20:21:30.090Z,7.60
2022-09-26T20:24:02.996Z,8.93
2022-09-26T20:26:38.169Z,9.25
2022-09-26T20:29:11.452Z,9.07
2022-09-26T20:31:42.482Z,9.18
2022-09-26T20:34:12.163Z,9.18
2022-09-26T20:36:47.828Z,9.20
2022-09-26T20:39:24.782Z,10.63
2022-09-26T20:41:53.703Z,11.35
2022-09-26T20:44:30.712Z,11.57
2022-09-26T20:47:01.442Z,11.45
2022-09-26T20:49:35.632Z,13.57
2022-09-26T20:52:03.664Z,14.07
2022-09-26T20:54:35.149Z,14.68
2022-09-26T20:57:04.678Z,14.80
2022-09-26T20:59:35.792Z,13.10
2022-09-26T21:02:29.680Z,13.38
2022-09-26T21:05:01.778Z,12.13
2022-09-26T21:07:33.125Z,12.80
2022-09-26T21:10:02.315Z,11.77
2022-09-26T21:12:31.702Z,12.32
2022-09-26T21:15:01.160Z,13.15
2022-09-26T21:17:31.375Z,14.07
2022-09-26T21:20:00.786Z,14.48
2022-09-26T21:22:57.940Z,14.10
2022-09-26T21:25:28.620Z,15.07
2022-09-26T21:28:27.500Z,14.98
2022-09-26T21:31:07.799Z,12.00
2022-09-26T21:33:37.183Z,6.95
2022-09-26T21:36:06.770Z,4.80
2022-09-26T21:38:34.929Z,3.65
2022-09-26T21:41:06.485Z,3.05
2022-09-26T21:43:40.514Z,2.72
2022-09-26T21:46:08.605Z,2.10
2022-09-26T21:48:36.165Z,1.67
2022-09-26T21:51:07.212Z,1.80
2022-09-26T21:53:59.415Z,1.80
2022-09-26T21:56:32.605Z,1.65
2022-09-26T21:59:01.658Z,1.70
2022-09-26T22:01:29.964Z,1.27
2022-09-26T22:03:59.857Z,1.40
2022-09-26T22:06:29.048Z,2.15
2022-09-26T22:08:57.224Z,2.30
2022-09-26T22:11:26.632Z,2.33
2022-09-26T22:13:55.170Z,2.28
2022-09-26T22:16:22.566Z,1.70
2022-09-26T22:18:50.348Z,1.85
2022-09-26T22:21:18.072Z,2.50
2022-09-26T22:23:48.866Z,2.50
2022-09-26T22:26:17.173Z,2.67
2022-09-26T22:28:45.203Z,2.78
2022-09-26T22:31:13.365Z,2.75
2022-09-26T22:33:41.193Z,2.35
2022-09-26T22:36:08.750Z,2.17
2022-09-26T22:38:37.050Z,1.75
2022-09-26T22:41:06.710Z,1.95
2022-09-26T22:43:35.038Z,1.60
2022-09-26T22:46:03.544Z,1.63
2022-09-26T22:48:47.757Z,1.90
2022-09-26T22:51:16.818Z,2.10
2022-09-26T22:53:44.902Z,1.83
2022-09-26T22:56:14.988Z,1.65
2022-09-26T22:58:45.891Z,2.13
2022-09-26T23:01:19.685Z,2.20
2022-09-26T23:03:47.273Z,2.00
2022-09-26T23:06:15.237Z,1.75
2022-09-26T23:08:42.681Z,2.00
2022-09-26T23:11:11.966Z,2.08
2022-09-26T23:13:39.798Z,2.00
2022-09-26T23:16:20.279Z,2.22
2022-09-26T23:18:49.496Z,1.75
2022-09-26T23:21:22.480Z,1.90
2022-09-26T23:23:52.337Z,2.10
2022-09-26T23:26:25.336Z,2.20
2022-09-26T23:28:54.647Z,2.13
2022-09-26T23:31:23.385Z,2.03
2022-09-26T23:33:51.670Z,2.20
2022-09-26T23:36:19.728Z,2.08
2022-09-26T23:38:47.211Z,2.60
2022-09-26T23:41:14.997Z,2.38
2022-09-26T23:43:42.557Z,2.55
2022-09-26T23:46:10.467Z,2.38
2022-09-26T23:48:38.300Z,2.20
2022-09-26T23:51:05.899Z,2.20
2022-09-26T23:53:33.579Z,2.50
2022-09-26T23:56:09.682Z,2.40
2022-09-26T23:58:37.521Z,2.63
